createdAt,value
2019-06-07T00:00:39.903Z,16.07
2019-06-07T00:05:43.361Z,20.52
2019-06-07T00:10:48.186Z,20.92
2019-06-07T00:15:53.047Z,23.27
2019-06-07T00:20:57.837Z,22.50
2019-06-07T00:26:02.612Z,20.50
2019-06-07T00:31:08.950Z,18.85
2019-06-07T00:36:17.654Z,19.35
2019-06-07T00:41:22.406Z,21.68
2019-06-07T00:46:27.495Z,20.90
2019-06-07T00:51:49.513Z,17.87
2019-06-07T00:56:39.199Z,17.30
2019-06-07T01:01:44.099Z,15.55
2019-06-07T01:06:48.879Z,12.90
2019-06-07T01:11:53.837Z,11.68
2019-06-07T01:17:22.069Z,12.82
2019-06-07T01:22:05.168Z,11.15
2019-06-07T01:27:09.866Z,14.05
2019-06-07T01:32:17.518Z,11.78
2019-06-07T01:37:25.128Z,11.68
2019-06-07T01:42:30.918Z,13.62
2019-06-07T01:47:36.002Z,15.83
2019-06-07T01:52:40.976Z,11.03
2019-06-07T01:57:48.580Z,11.65
2019-06-07T02:02:52.267Z,11.33
2019-06-07T02:07:56.940Z,10.78
2019-06-07T02:13:01.848Z,9.53
2019-06-07T02:18:06.820Z,11.68
2019-06-07T02:23:15.042Z,12.53
2019-06-07T02:33:31.139Z,10.73
2019-06-07T02:38:37.525Z,11.45
2019-06-07T02:43:41.167Z,13.43
2019-06-07T02:48:46.132Z,10.72
2019-06-07T02:53:51.369Z,10.38
2019-06-07T02:58:56.409Z,10.43
2019-06-07T03:04:01.797Z,10.25
2019-06-07T03:09:08.452Z,10.00
2019-06-07T03:14:13.516Z,10.80
2019-06-07T03:19:22.519Z,9.23
2019-06-07T03:24:30.056Z,9.65
2019-06-07T03:29:36.488Z,8.13
2019-06-07T03:34:43.484Z,7.87
2019-06-07T03:39:47.179Z,10.05
2019-06-07T03:44:52.097Z,9.45
2019-06-07T03:49:59.553Z,9.53
2019-06-07T03:55:06.275Z,11.23
2019-06-07T04:00:12.315Z,10.55
2019-06-07T04:05:17.120Z,8.03
2019-06-07T04:10:44.834Z,9.10
2019-06-07T04:15:28.457Z,7.87
2019-06-07T04:20:35.737Z,9.70
2019-06-07T04:25:42.473Z,8.03
2019-06-07T04:30:46.849Z,9.60
2019-06-07T04:35:53.322Z,9.13
2019-06-07T04:41:00.723Z,7.95
2019-06-07T04:46:07.049Z,7.87
2019-06-07T04:51:14.089Z,6.72
2019-06-07T04:56:19.150Z,6.70
2019-06-07T05:01:27.826Z,8.13
2019-06-07T05:06:32.939Z,6.17
2019-06-07T05:11:39.304Z,7.08
2019-06-07T05:16:44.526Z,8.25
2019-06-07T05:22:03.824Z,7.80
2019-06-07T05:26:55.872Z,7.58
2019-06-07T05:32:01.164Z,7.10
2019-06-07T05:37:12.203Z,6.28
2019-06-07T05:42:13.822Z,6.42
2019-06-07T05:47:18.595Z,7.03
2019-06-07T05:52:23.389Z,7.15
2019-06-07T05:57:28.291Z,6.85
2019-06-07T06:02:50.396Z,7.47
2019-06-07T06:07:49.126Z,6.65
2019-06-07T06:12:51.798Z,6.10
2019-06-07T06:17:57.014Z,5.20
2019-06-07T06:23:02.125Z,4.37
2019-06-07T06:28:12.205Z,7.50
2019-06-07T06:33:30.569Z,5.10
2019-06-07T06:38:20.282Z,6.35
2019-06-07T06:43:25.392Z,11.38
2019-06-07T06:48:30.141Z,12.85
2019-06-07T06:53:40.102Z,18.32
2019-06-07T06:59:34.113Z,12.07
2019-06-07T07:04:11.581Z,10.10
2019-06-07T07:08:59.132Z,8.38
2019-06-07T07:14:03.929Z,9.43
2019-06-07T07:19:08.813Z,8.78
2019-06-07T07:24:21.825Z,8.93
2019-06-07T07:29:21.997Z,5.62
2019-06-07T07:34:35.361Z,8.23
2019-06-07T07:39:33.510Z,7.33
2019-06-07T07:44:38.411Z,6.87
2019-06-07T07:49:44.769Z,7.62
2019-06-07T07:54:52.056Z,8.58
2019-06-07T08:00:25.325Z,6.00
2019-06-07T08:05:25.563Z,3.55
2019-06-07T08:10:09.351Z,3.37
2019-06-07T08:15:15.813Z,3.25
2019-06-07T08:20:21.104Z,4.58
2019-06-07T08:25:25.974Z,3.27
2019-06-07T08:36:05.740Z,4.90
2019-06-07T08:40:43.543Z,6.05
2019-06-07T08:45:51.261Z,4.42
2019-06-07T08:51:00.708Z,5.50
2019-06-07T08:56:09.020Z,5.42
2019-06-07T09:01:10.294Z,4.87
2019-06-07T09:06:53.923Z,3.87
2019-06-07T09:11:21.782Z,4.25
2019-06-07T09:16:26.796Z,4.85
2019-06-07T09:21:31.580Z,5.67
2019-06-07T09:26:36.391Z,4.85
2019-06-07T09:31:52.987Z,4.83
2019-06-07T09:36:47.874Z,5.25
2019-06-07T09:41:52.614Z,5.83
2019-06-07T09:47:20.170Z,7.35
2019-06-07T09:52:09.079Z,6.58
2019-06-07T09:57:16.667Z,8.50
2019-06-07T10:02:16.788Z,7.60
2019-06-07T10:07:31.273Z,7.65
2019-06-07T10:12:28.860Z,7.97
2019-06-07T10:17:33.722Z,7.78
2019-06-07T10:22:38.619Z,7.58
2019-06-07T10:27:43.481Z,7.83
2019-06-07T10:32:51.931Z,6.67
2019-06-07T10:37:54.717Z,8.13
2019-06-07T10:43:00.850Z,8.15
2019-06-07T10:48:06.040Z,8.05
2019-06-07T10:53:10.936Z,7.55
2019-06-07T10:58:16.208Z,8.53
2019-06-07T11:03:21.079Z,6.92
2019-06-07T11:08:25.844Z,5.85
2019-06-07T11:13:31.028Z,8.25
2019-06-07T11:18:35.827Z,5.65
2019-06-07T11:23:40.981Z,8.05
2019-06-07T11:28:48.721Z,7.03
2019-06-07T11:38:57.904Z,6.53
2019-06-07T11:44:02.741Z,7.03
2019-06-07T11:49:19.914Z,6.78
2019-06-07T11:54:20.672Z,6.53
2019-06-07T11:59:25.722Z,7.67
2019-06-07T12:04:34.840Z,6.67
2019-06-07T12:09:36.731Z,7.25
2019-06-07T12:14:42.052Z,6.22
2019-06-07T12:19:46.896Z,6.53
2019-06-07T12:24:51.721Z,7.00
2019-06-07T12:29:56.554Z,7.22
2019-06-07T12:35:01.176Z,7.15
2019-06-07T12:40:07.689Z,6.47
2019-06-07T12:45:14.376Z,6.75
2019-06-07T12:50:19.632Z,7.15
2019-06-07T12:55:24.904Z,6.40
2019-06-07T13:00:30.019Z,5.97
2019-06-07T13:05:35.062Z,9.38
2019-06-07T13:10:40.484Z,6.15
2019-06-07T13:15:46.434Z,7.03
2019-06-07T13:20:55.379Z,5.72
2019-06-07T13:25:59.255Z,6.47
2019-06-07T13:31:04.216Z,5.87
2019-06-07T13:36:10.270Z,6.35
2019-06-07T13:41:31.456Z,5.75
2019-06-07T13:46:23.032Z,5.40
2019-06-07T13:51:28.862Z,6.72
2019-06-07T13:56:33.935Z,5.87
2019-06-07T14:01:38.710Z,6.37
2019-06-07T14:06:43.560Z,7.60
2019-06-07T14:11:50.903Z,5.53
2019-06-07T14:16:55.837Z,6.60
2019-06-07T14:27:06.809Z,7.72
2019-06-07T14:32:12.215Z,6.80
2019-06-07T14:37:17.102Z,6.25
2019-06-07T14:42:23.344Z,7.10
2019-06-07T14:47:32.002Z,6.92
2019-06-07T14:52:37.119Z,7.45
2019-06-07T14:57:42.163Z,7.25
2019-06-07T15:02:47.135Z,9.30
2019-06-07T15:07:52.189Z,8.75
2019-06-07T15:12:58.600Z,8.80
2019-06-07T15:18:03.475Z,8.18
2019-06-07T15:23:08.367Z,6.90
2019-06-07T15:28:13.380Z,8.08
2019-06-07T15:33:18.284Z,8.10
2019-06-07T15:38:23.220Z,8.60
2019-06-07T15:43:29.410Z,6.65
2019-06-07T15:48:35.979Z,8.28
2019-06-07T15:53:44.179Z,9.93
2019-06-07T15:58:47.646Z,8.30
2019-06-07T16:03:52.859Z,8.08
2019-06-07T16:08:57.754Z,9.08
2019-06-07T16:14:02.860Z,7.95
2019-06-07T16:19:07.734Z,7.80
2019-06-07T16:24:12.706Z,10.03
2019-06-07T16:30:42.604Z,7.70
2019-06-07T16:35:49.928Z,7.17
2019-06-07T16:40:55.996Z,7.42
2019-06-07T16:46:00.981Z,7.72
2019-06-07T16:51:05.882Z,6.47
2019-06-07T16:56:10.719Z,7.47
2019-06-07T17:01:15.764Z,7.28
2019-06-07T17:06:20.890Z,9.53
2019-06-07T17:11:25.985Z,8.83
2019-06-07T17:16:30.991Z,7.95
2019-06-07T17:21:35.761Z,7.30
2019-06-07T17:26:41.611Z,12.53
2019-06-07T17:31:48.170Z,7.45
2019-06-07T17:36:55.038Z,8.90
2019-06-07T17:56:19.249Z,7.37
2019-06-07T18:01:24.452Z,7.87
2019-06-07T18:06:29.531Z,8.33
2019-06-07T18:11:34.314Z,7.97
2019-06-07T18:16:39.178Z,7.03
2019-06-07T18:21:45.511Z,12.55
2019-06-07T18:26:50.530Z,8.78
2019-06-07T18:31:55.545Z,9.73
2019-06-07T18:37:00.322Z,9.90
2019-06-07T18:42:05.740Z,9.48
2019-06-07T18:47:10.644Z,12.37
2019-06-07T18:52:18.543Z,11.70
2019-06-07T18:57:24.425Z,11.80
2019-06-07T19:02:30.305Z,10.72
2019-06-07T19:07:35.561Z,13.13
2019-06-07T19:12:42.362Z,10.30
2019-06-07T19:17:47.028Z,9.10
2019-06-07T19:22:52.140Z,12.45
2019-06-07T19:27:57.128Z,13.40
2019-06-07T19:33:04.831Z,18.25
2019-06-07T19:38:11.271Z,16.75
2019-06-07T19:43:16.101Z,16.32
2019-06-07T19:48:20.960Z,16.00
2019-06-07T19:53:26.063Z,16.20
2019-06-07T19:58:31.110Z,17.85
2019-06-07T20:03:35.853Z,18.98
2019-06-07T20:08:40.789Z,18.80
2019-06-07T20:13:45.756Z,18.98
2019-06-07T20:18:50.583Z,18.23
2019-06-07T20:23:56.685Z,17.15
2019-06-07T20:29:01.664Z,16.52
2019-06-07T20:34:06.536Z,13.72
2019-06-07T20:39:11.688Z,15.32
2019-06-07T20:44:16.446Z,17.80
2019-06-07T20:49:21.317Z,18.17
2019-06-07T20:54:26.289Z,16.60
2019-06-07T20:59:31.101Z,16.37
2019-06-07T21:04:37.456Z,17.82
2019-06-07T21:09:42.374Z,20.77
2019-06-07T21:14:47.955Z,18.70
2019-06-07T21:19:52.824Z,15.98
2019-06-07T21:25:00.682Z,16.67
2019-06-07T21:30:09.629Z,17.45
2019-06-07T21:35:23.766Z,16.52
